createdAt,value
2017-06-01T00:02:24.021Z,9.34
2017-06-01T00:04:52.878Z,9.56
2017-06-01T00:07:21.766Z,9.70
2017-06-01T00:09:50.603Z,9.92
2017-06-01T00:12:19.472Z,10.34
2017-06-01T00:14:48.350Z,9.44
2017-06-01T00:17:17.227Z,9.40
2017-06-01T00:19:46.085Z,11.24
2017-06-01T00:22:14.318Z,9.38
2017-06-01T00:24:43.171Z,8.96
2017-06-01T00:27:12.016Z,9.28
2017-06-01T00:29:40.916Z,9.06
2017-06-01T00:32:09.781Z,8.46
2017-06-01T00:34:38.636Z,8.70
2017-06-01T00:37:07.554Z,9.52
2017-06-01T00:39:36.405Z,7.92
2017-06-01T00:42:04.487Z,7.86
2017-06-01T00:44:33.379Z,8.50
2017-06-01T00:47:02.219Z,8.80
2017-06-01T00:49:31.118Z,8.72
2017-06-01T00:51:59.988Z,9.40
2017-06-01T00:54:28.844Z,9.02
2017-06-01T00:56:57.868Z,9.28
2017-06-01T00:59:25.966Z,7.98
2017-06-01T01:01:54.805Z,8.96
2017-06-01T01:04:23.693Z,8.64
2017-06-01T01:06:52.545Z,8.88
2017-06-01T01:09:21.401Z,8.56
2017-06-01T01:11:50.301Z,8.50
2017-06-01T01:14:19.142Z,8.34
2017-06-01T01:16:48.013Z,8.60
2017-06-01T01:19:17.009Z,9.22
2017-06-01T01:21:45.096Z,9.10
2017-06-01T01:24:13.954Z,10.02
2017-06-01T01:26:42.867Z,9.64
2017-06-01T01:29:10.944Z,10.04
2017-06-01T01:31:39.812Z,10.46
2017-06-01T01:34:08.701Z,10.32
2017-06-01T01:36:37.552Z,10.56
2017-06-01T01:39:13.567Z,9.86
2017-06-01T01:41:43.694Z,9.20
2017-06-01T01:44:11.778Z,10.00
2017-06-01T01:46:43.122Z,9.00
2017-06-01T01:49:11.981Z,10.00
2017-06-01T01:51:40.073Z,9.72
2017-06-01T01:54:08.957Z,9.62
2017-06-01T01:56:37.812Z,10.12
2017-06-01T01:59:06.705Z,9.10
2017-06-01T02:01:35.560Z,9.42
2017-06-01T02:04:04.418Z,10.10
2017-06-01T02:06:33.413Z,9.28
2017-06-01T02:09:02.281Z,9.46
2017-06-01T02:11:30.389Z,9.04
2017-06-01T02:13:59.277Z,9.55
2017-06-01T02:16:28.173Z,8.70
2017-06-01T02:18:57.176Z,9.68
2017-06-01T02:21:26.038Z,9.86
2017-06-01T02:23:54.892Z,10.08
2017-06-01T02:26:23.777Z,9.06
2017-06-01T02:28:52.650Z,11.12
2017-06-01T02:31:21.541Z,10.20
2017-06-01T02:33:50.447Z,9.70
2017-06-01T02:36:19.326Z,10.06
2017-06-01T02:38:48.348Z,10.34
2017-06-01T02:41:17.237Z,10.02
2017-06-01T02:43:46.090Z,9.02
2017-06-01T02:46:15.045Z,9.38
2017-06-01T02:48:43.905Z,9.85
2017-06-01T02:51:12.766Z,10.35
2017-06-01T02:53:41.661Z,9.27
2017-06-01T02:56:10.535Z,10.00
2017-06-01T02:58:39.388Z,8.80
2017-06-01T03:01:08.277Z,10.00
2017-06-01T03:03:37.133Z,9.82
2017-06-01T03:06:06.134Z,10.53
2017-06-01T03:08:35.002Z,9.48
2017-06-01T03:11:03.864Z,9.50
2017-06-01T03:13:32.773Z,9.63
2017-06-01T03:16:01.658Z,10.18
2017-06-01T03:18:30.530Z,10.52
2017-06-01T03:20:59.427Z,9.77
2017-06-01T03:23:28.285Z,9.85
2017-06-01T03:25:57.148Z,10.55
2017-06-01T03:28:29.642Z,9.17
2017-06-01T03:30:58.496Z,10.12
2017-06-01T03:33:28.652Z,10.73
2017-06-01T03:35:57.516Z,10.28
2017-06-01T03:38:26.377Z,9.82
2017-06-01T03:40:56.460Z,10.65
2017-06-01T03:43:25.316Z,11.03
2017-06-01T03:45:54.337Z,10.78
2017-06-01T03:48:23.203Z,10.80
2017-06-01T03:50:52.071Z,10.90
2017-06-01T03:53:20.965Z,9.70
2017-06-01T03:55:49.056Z,10.90
2017-06-01T03:58:17.913Z,11.57
2017-06-01T04:00:46.806Z,11.38
2017-06-01T04:03:15.672Z,10.23
2017-06-01T04:05:44.533Z,11.20
2017-06-01T04:08:13.554Z,10.32
2017-06-01T04:10:42.416Z,9.93
2017-06-01T04:13:10.500Z,10.23
2017-06-01T04:15:39.398Z,9.72
2017-06-01T04:18:08.256Z,9.58
2017-06-01T04:20:37.121Z,9.87
2017-06-01T04:23:06.014Z,10.50
2017-06-01T04:25:34.885Z,10.00
2017-06-01T04:28:05.582Z,10.72
2017-06-01T04:30:34.449Z,9.97
2017-06-01T04:33:03.313Z,10.93
2017-06-01T04:35:32.221Z,10.37
2017-06-01T04:38:01.078Z,10.73
2017-06-01T04:40:29.945Z,10.12
2017-06-01T04:42:58.962Z,10.98
2017-06-01T04:45:27.833Z,11.25
2017-06-01T04:47:56.724Z,10.75
2017-06-01T04:50:25.589Z,11.03
2017-06-01T04:52:54.437Z,9.90
2017-06-01T04:55:23.325Z,9.67
2017-06-01T04:57:52.198Z,11.12
2017-06-01T05:00:22.843Z,9.97
2017-06-01T05:02:51.689Z,11.32
2017-06-01T05:05:20.565Z,10.82
2017-06-01T05:07:51.781Z,11.30
2017-06-01T05:10:20.635Z,11.86
2017-06-01T05:12:49.507Z,11.10
2017-06-01T05:15:18.405Z,12.88
2017-06-01T05:17:48.961Z,12.06
2017-06-01T05:20:17.825Z,12.67
2017-06-01T05:22:48.395Z,12.46
2017-06-01T05:25:17.300Z,11.65
2017-06-01T05:27:46.177Z,11.12
2017-06-01T05:30:15.057Z,10.63
2017-06-01T05:32:43.957Z,11.04
2017-06-01T05:35:12.818Z,12.40
2017-06-01T05:37:41.682Z,11.84
2017-06-01T05:40:10.674Z,11.14
2017-06-01T05:42:39.533Z,11.12
2017-06-01T05:45:08.393Z,11.46
2017-06-01T05:47:37.326Z,12.52
2017-06-01T05:50:06.174Z,11.82
2017-06-01T05:52:35.024Z,12.86
2017-06-01T05:55:03.926Z,13.00
2017-06-01T05:57:32.792Z,11.28
2017-06-01T06:00:01.650Z,11.54
2017-06-01T06:02:30.639Z,11.52
2017-06-01T06:04:59.503Z,13.22
2017-06-01T06:07:28.395Z,12.46
2017-06-01T06:09:57.252Z,12.40
2017-06-01T06:12:26.113Z,11.30
2017-06-01T06:14:55.117Z,12.30
2017-06-01T06:17:24.008Z,11.10
2017-06-01T06:19:52.864Z,12.44
2017-06-01T06:22:21.757Z,13.58
2017-06-01T06:24:50.628Z,13.10
2017-06-01T06:27:19.517Z,13.32
2017-06-01T06:29:48.371Z,14.60
2017-06-01T06:32:17.220Z,13.42
2017-06-01T06:34:46.121Z,13.12
2017-06-01T06:37:14.988Z,12.80
2017-06-01T06:39:43.838Z,11.94
2017-06-01T06:42:19.297Z,11.22
2017-06-01T06:44:47.389Z,12.50
2017-06-01T06:47:16.251Z,13.34
2017-06-01T06:49:45.257Z,12.96
2017-06-01T06:52:14.132Z,13.14
2017-06-01T06:54:42.994Z,12.30
2017-06-01T06:57:11.882Z,12.64
2017-06-01T06:59:40.749Z,12.88
2017-06-01T07:02:09.593Z,12.70
2017-06-01T07:04:38.507Z,14.68
2017-06-01T07:07:07.383Z,14.58
2017-06-01T07:09:36.304Z,13.08
2017-06-01T07:12:05.152Z,13.90
2017-06-01T07:14:34.016Z,12.00
2017-06-01T07:17:03.641Z,11.64
2017-06-01T07:19:32.506Z,12.74
2017-06-01T07:22:01.369Z,13.08
2017-06-01T07:24:30.381Z,12.44
2017-06-01T07:26:59.251Z,11.44
2017-06-01T07:29:28.118Z,10.84
2017-06-01T07:31:57.040Z,11.34
2017-06-01T07:34:25.900Z,9.42
2017-06-01T07:36:54.769Z,9.32
2017-06-01T07:39:23.749Z,10.32
2017-06-01T07:41:52.602Z,8.10
2017-06-01T07:44:21.461Z,8.42
2017-06-01T07:46:49.597Z,9.26
2017-06-01T07:49:18.466Z,8.44
2017-06-01T07:51:48.533Z,9.26
2017-06-01T07:54:18.225Z,8.68
2017-06-01T07:56:47.404Z,11.64
2017-06-01T07:59:16.265Z,11.76
2017-06-01T08:01:45.165Z,13.46
2017-06-01T08:04:13.257Z,9.36
2017-06-01T08:06:42.113Z,8.08
2017-06-01T08:09:11.834Z,10.02
2017-06-01T08:11:40.693Z,10.42
2017-06-01T08:14:10.870Z,11.52
2017-06-01T08:16:39.737Z,12.52
2017-06-01T08:19:08.617Z,10.24
2017-06-01T08:21:37.522Z,10.76
2017-06-01T08:24:06.391Z,10.52
2017-06-01T08:26:35.253Z,10.70
2017-06-01T08:29:11.397Z,9.12
2017-06-01T08:31:40.252Z,7.70
2017-06-01T08:34:09.097Z,8.96
2017-06-01T08:36:37.998Z,7.48
2017-06-01T08:39:06.853Z,7.68
2017-06-01T08:41:35.691Z,5.50
2017-06-01T08:44:04.584Z,5.48
2017-06-01T08:46:33.431Z,7.06
2017-06-01T08:49:02.273Z,7.02
2017-06-01T08:51:31.194Z,7.22
2017-06-01T08:54:00.053Z,6.58
2017-06-01T08:56:28.917Z,6.82
2017-06-01T08:58:58.638Z,6.14
2017-06-01T09:01:27.488Z,5.76
2017-06-01T09:03:56.340Z,6.66
2017-06-01T09:06:25.290Z,5.84
2017-06-01T09:08:54.144Z,4.42
2017-06-01T09:11:23.003Z,7.52
2017-06-01T09:13:51.909Z,6.78
2017-06-01T09:16:21.556Z,7.66
2017-06-01T09:18:50.414Z,6.70
2017-06-01T09:21:18.535Z,6.94
2017-06-01T09:23:47.553Z,6.12
2017-06-01T09:26:16.400Z,6.64
2017-06-01T09:28:44.482Z,6.76
2017-06-01T09:31:13.365Z,5.48
2017-06-01T09:33:42.221Z,5.66
2017-06-01T09:36:11.069Z,6.10
2017-06-01T09:38:43.624Z,5.56
2017-06-01T09:41:12.465Z,4.44
2017-06-01T09:43:41.333Z,5.68
2017-06-01T09:46:10.177Z,5.34
2017-06-01T09:48:39.061Z,5.58
2017-06-01T09:51:07.905Z,5.40
2017-06-01T09:53:36.743Z,4.78
2017-06-01T09:56:05.660Z,4.58
2017-06-01T09:58:34.493Z,5.04
2017-06-01T10:01:03.359Z,4.76
2017-06-01T10:03:32.240Z,4.80
2017-06-01T10:06:01.076Z,4.08
2017-06-01T10:08:29.917Z,4.14
2017-06-01T10:10:58.797Z,4.10
2017-06-01T10:13:27.637Z,3.60
2017-06-01T10:15:56.545Z,4.34
2017-06-01T10:18:26.744Z,4.32
2017-06-01T10:20:55.593Z,3.84
2017-06-01T10:23:25.690Z,3.70
2017-06-01T10:25:54.537Z,3.72
2017-06-01T10:28:23.389Z,4.38
2017-06-01T10:30:52.277Z,3.46
2017-06-01T10:33:21.129Z,3.90
2017-06-01T10:35:53.633Z,3.72
2017-06-01T10:38:22.490Z,3.53
2017-06-01T10:40:51.328Z,3.40
2017-06-01T10:43:20.202Z,3.30
2017-06-01T10:45:48.288Z,3.06
2017-06-01T10:48:17.174Z,3.68
2017-06-01T10:50:46.029Z,3.42
2017-06-01T10:53:14.890Z,3.70
2017-06-01T10:55:43.890Z,3.62
2017-06-01T10:58:12.748Z,3.98
2017-06-01T11:00:41.601Z,3.44
2017-06-01T11:03:10.489Z,3.96
2017-06-01T11:05:39.342Z,4.26
2017-06-01T11:08:08.221Z,4.04
2017-06-01T11:10:37.116Z,4.32
2017-06-01T11:13:05.974Z,3.98
2017-06-01T11:15:34.815Z,3.30
2017-06-01T11:18:05.863Z,3.80
2017-06-01T11:20:34.718Z,4.14
2017-06-01T11:23:03.589Z,4.50
2017-06-01T11:25:32.484Z,4.00
2017-06-01T11:28:01.324Z,3.40
2017-06-01T11:30:37.650Z,3.56
2017-06-01T11:33:06.617Z,3.42
2017-06-01T11:35:35.492Z,3.56
2017-06-01T11:38:04.389Z,3.48
2017-06-01T11:40:33.248Z,3.62
2017-06-01T11:43:02.148Z,3.22
2017-06-01T11:45:31.037Z,3.28
2017-06-01T11:47:59.883Z,3.78
2017-06-01T11:50:28.752Z,3.96
2017-06-01T11:52:57.665Z,3.70
2017-06-01T11:55:26.520Z,3.60
2017-06-01T11:57:55.414Z,3.58
2017-06-01T12:00:24.266Z,3.76
2017-06-01T12:02:53.114Z,3.86
2017-06-01T12:05:22.001Z,3.92
2017-06-01T12:07:50.864Z,4.42
2017-06-01T12:10:19.730Z,4.02
2017-06-01T12:12:50.338Z,3.50
2017-06-01T12:15:20.926Z,3.60
2017-06-01T12:17:52.689Z,3.50
2017-06-01T12:20:21.550Z,3.58
2017-06-01T12:22:49.670Z,3.26
2017-06-01T12:25:18.514Z,3.20
2017-06-01T12:27:47.366Z,3.66
2017-06-01T12:30:16.285Z,3.30
2017-06-01T12:32:45.133Z,2.86
2017-06-01T12:35:13.982Z,3.60
2017-06-01T12:37:42.874Z,3.02
2017-06-01T12:40:11.718Z,3.08
2017-06-01T12:42:40.576Z,3.16
2017-06-01T12:45:16.832Z,3.24
2017-06-01T12:47:45.773Z,3.30
2017-06-01T12:50:14.665Z,3.24
2017-06-01T12:52:43.518Z,3.02
2017-06-01T12:55:12.385Z,3.10
2017-06-01T12:57:41.249Z,3.30
2017-06-01T13:00:10.119Z,2.70
2017-06-01T13:02:46.909Z,3.20
2017-06-01T13:05:23.558Z,3.12
2017-06-01T13:07:52.525Z,3.36
2017-06-01T13:10:21.390Z,2.70
2017-06-01T13:12:50.234Z,2.92
2017-06-01T13:15:20.357Z,2.76
2017-06-01T13:18:04.571Z,2.74
2017-06-01T13:20:33.478Z,2.90
2017-06-01T13:23:02.333Z,2.74
2017-06-01T13:25:31.181Z,2.98
2017-06-01T13:28:00.085Z,2.62
2017-06-01T13:30:28.982Z,2.70
2017-06-01T13:32:57.842Z,2.34
2017-06-01T13:35:26.866Z,2.60
2017-06-01T13:37:55.729Z,2.78
2017-06-01T13:40:24.606Z,2.46
2017-06-01T13:42:53.509Z,2.70
2017-06-01T13:45:22.355Z,2.70
2017-06-01T13:47:51.211Z,2.52
2017-06-01T13:50:20.268Z,2.82
2017-06-01T13:52:49.121Z,2.78
2017-06-01T13:55:25.216Z,2.44
2017-06-01T13:57:54.202Z,2.36
2017-06-01T14:00:23.055Z,2.68
2017-06-01T14:02:51.983Z,2.28
2017-06-01T14:05:20.832Z,2.80
2017-06-01T14:07:49.721Z,2.82
2017-06-01T14:10:18.602Z,2.40
2017-06-01T14:12:47.483Z,2.46
2017-06-01T14:15:23.736Z,2.70
2017-06-01T14:17:55.999Z,2.36
2017-06-01T14:20:26.196Z,2.46
2017-06-01T14:22:55.061Z,2.70
2017-06-01T14:25:23.939Z,2.24
2017-06-01T14:27:52.799Z,2.60
2017-06-01T14:30:21.721Z,2.30
2017-06-01T14:32:50.582Z,3.74
2017-06-01T14:35:19.440Z,2.68
2017-06-01T14:37:48.469Z,2.34
2017-06-01T14:40:17.327Z,2.34
2017-06-01T14:42:46.182Z,2.70
2017-06-01T14:45:15.190Z,2.30
2017-06-01T14:47:44.050Z,2.30
2017-06-01T14:50:12.913Z,2.20
2017-06-01T14:52:41.795Z,2.10
2017-06-01T14:55:10.684Z,2.50
2017-06-01T14:57:39.582Z,2.54
2017-06-01T15:00:08.503Z,2.10
2017-06-01T15:02:37.354Z,2.48
2017-06-01T15:05:06.207Z,2.08
2017-06-01T15:07:36.972Z,2.72
2017-06-01T15:10:05.833Z,2.82
2017-06-01T15:12:34.694Z,2.66
2017-06-01T15:15:03.598Z,2.62
2017-06-01T15:17:32.478Z,2.44
2017-06-01T15:20:01.413Z,2.56
2017-06-01T15:22:30.269Z,2.54
2017-06-01T15:24:59.138Z,2.88
2017-06-01T15:27:28.714Z,2.96
2017-06-01T15:29:57.595Z,2.68
2017-06-01T15:32:26.450Z,2.84
2017-06-01T15:34:55.349Z,2.40
2017-06-01T15:37:24.244Z,2.88
2017-06-01T15:39:53.116Z,2.50
2017-06-01T15:42:22.368Z,2.34
2017-06-01T15:44:51.231Z,2.68
2017-06-01T15:47:20.095Z,2.56
2017-06-01T15:49:49.922Z,2.66
2017-06-01T15:52:18.772Z,2.34
2017-06-01T15:54:47.643Z,2.12
2017-06-01T15:57:16.601Z,3.12
2017-06-01T15:59:45.407Z,2.66
2017-06-01T16:02:14.321Z,2.68
2017-06-01T16:04:43.194Z,2.38
2017-06-01T16:07:12.058Z,2.70
2017-06-01T16:09:41.060Z,2.74
2017-06-01T16:12:09.936Z,2.80
2017-06-01T16:14:38.846Z,2.44
2017-06-01T16:17:07.023Z,2.60
2017-06-01T16:19:35.895Z,2.36
2017-06-01T16:22:04.811Z,2.80
2017-06-01T16:24:33.691Z,2.98
2017-06-01T16:27:02.554Z,2.38
2017-06-01T16:29:38.482Z,2.54
2017-06-01T16:32:14.905Z,2.20
2017-06-01T16:34:51.818Z,2.86
2017-06-01T16:37:20.773Z,2.76
2017-06-01T16:39:49.658Z,2.70
2017-06-01T16:42:18.590Z,2.44
2017-06-01T16:44:47.461Z,2.38
2017-06-01T16:47:16.347Z,2.28
2017-06-01T16:49:52.494Z,2.20
2017-06-01T16:52:21.465Z,2.50
2017-06-01T16:54:50.350Z,2.74
2017-06-01T16:57:19.233Z,2.54
2017-06-01T16:59:48.173Z,2.46
2017-06-01T17:02:17.078Z,2.60
2017-06-01T17:04:46.016Z,2.86
2017-06-01T17:07:14.962Z,2.14
2017-06-01T17:09:43.835Z,2.10
2017-06-01T17:12:12.714Z,2.70
2017-06-01T17:14:41.590Z,2.20
2017-06-01T17:17:26.108Z,2.60
2017-06-01T17:20:02.962Z,2.70
2017-06-01T17:22:39.573Z,2.20
2017-06-01T17:25:08.550Z,2.78
2017-06-01T17:27:37.409Z,2.78
2017-06-01T17:30:06.289Z,2.38
2017-06-01T17:32:35.171Z,2.42
2017-06-01T17:35:04.019Z,2.88
2017-06-01T17:37:32.954Z,2.74
2017-06-01T17:40:01.885Z,2.46
2017-06-01T17:42:30.739Z,2.70
2017-06-01T17:44:59.628Z,2.40
2017-06-01T17:47:28.538Z,2.40
2017-06-01T17:49:57.415Z,2.58
2017-06-01T17:52:26.298Z,2.86
2017-06-01T17:54:55.162Z,2.54
2017-06-01T17:57:27.613Z,2.70
2017-06-01T17:59:56.498Z,2.34
2017-06-01T18:02:25.380Z,2.56
2017-06-01T18:04:55.540Z,2.38
2017-06-01T18:07:24.406Z,2.80
2017-06-01T18:09:54.546Z,2.60
2017-06-01T18:12:23.446Z,2.46
2017-06-01T18:14:52.318Z,2.34
2017-06-01T18:17:28.750Z,2.86
2017-06-01T18:20:05.376Z,2.38
2017-06-01T18:22:33.594Z,2.92
2017-06-01T18:25:02.455Z,2.54
2017-06-01T18:27:31.323Z,2.82
2017-06-01T18:30:00.224Z,2.84
2017-06-01T18:32:29.090Z,2.50
2017-06-01T18:35:05.964Z,3.00
2017-06-01T18:37:42.163Z,3.32
2017-06-01T18:40:11.153Z,3.08
2017-06-01T18:42:40.037Z,2.96
2017-06-01T18:45:08.916Z,2.74
2017-06-01T18:47:37.828Z,2.66
2017-06-01T18:50:06.702Z,3.18
2017-06-01T18:52:35.570Z,2.90
2017-06-01T18:55:11.595Z,3.08
2017-06-01T18:57:47.580Z,3.10
2017-06-01T19:00:16.550Z,3.90
2017-06-01T19:02:45.409Z,3.08
2017-06-01T19:05:14.268Z,2.96
2017-06-01T19:07:43.161Z,3.50
2017-06-01T19:10:12.048Z,3.22
2017-06-01T19:12:40.930Z,3.44
2017-06-01T19:15:16.989Z,3.56
2017-06-01T19:17:53.523Z,3.16
2017-06-01T19:20:22.535Z,2.94
2017-06-01T19:22:51.388Z,3.02
2017-06-01T19:25:20.254Z,3.34
2017-06-01T19:27:49.125Z,3.02
2017-06-01T19:30:26.032Z,3.86
2017-06-01T19:33:02.693Z,3.50
2017-06-01T19:35:39.202Z,3.38
2017-06-01T19:38:08.169Z,4.02
2017-06-01T19:40:37.055Z,3.00
2017-06-01T19:43:05.948Z,3.66
2017-06-01T19:45:34.869Z,3.08
2017-06-01T19:48:03.740Z,3.58
2017-06-01T19:50:32.597Z,3.96
2017-06-01T19:53:01.495Z,3.44
2017-06-01T19:55:30.358Z,3.32
2017-06-01T19:57:59.256Z,3.36
2017-06-01T20:00:28.149Z,3.70
2017-06-01T20:02:56.981Z,3.42
2017-06-01T20:05:25.855Z,3.28
2017-06-01T20:07:55.785Z,3.46
2017-06-01T20:10:24.630Z,3.66
2017-06-01T20:12:53.517Z,4.02
2017-06-01T20:15:22.381Z,3.62
2017-06-01T20:17:51.256Z,3.80
2017-06-01T20:20:20.138Z,3.48
2017-06-01T20:22:49.006Z,3.98
2017-06-01T20:25:17.864Z,3.76
2017-06-01T20:27:53.874Z,3.02
2017-06-01T20:30:22.875Z,3.58
2017-06-01T20:32:51.728Z,4.76
2017-06-01T20:35:20.637Z,3.90
2017-06-01T20:37:49.500Z,3.98
2017-06-01T20:40:18.372Z,3.96
2017-06-01T20:42:55.186Z,3.30
2017-06-01T20:45:24.086Z,4.18
2017-06-01T20:47:52.977Z,3.30
2017-06-01T20:50:21.847Z,4.32
2017-06-01T20:52:50.707Z,3.62
2017-06-01T20:55:19.579Z,3.18
2017-06-01T20:57:48.460Z,3.64
2017-06-01T21:00:19.083Z,3.66
2017-06-01T21:02:47.931Z,3.82
2017-06-01T21:05:16.793Z,3.60
2017-06-01T21:07:45.681Z,3.76
2017-06-01T21:10:14.541Z,3.90
2017-06-01T21:12:43.389Z,3.32
2017-06-01T21:15:12.285Z,3.62
2017-06-01T21:17:44.829Z,3.88
2017-06-01T21:20:13.699Z,3.74
2017-06-01T21:22:42.566Z,3.54
2017-06-01T21:25:11.462Z,4.28
2017-06-01T21:27:40.318Z,4.26
2017-06-01T21:30:09.200Z,3.92
2017-06-01T21:32:38.119Z,4.00
2017-06-01T21:35:06.962Z,3.88
2017-06-01T21:37:35.813Z,3.28
2017-06-01T21:40:04.708Z,3.46
2017-06-01T21:42:33.560Z,3.70
2017-06-01T21:45:02.451Z,3.40
2017-06-01T21:47:31.369Z,3.14
2017-06-01T21:50:00.202Z,3.54
2017-06-01T21:52:29.066Z,3.40
2017-06-01T21:54:58.062Z,3.40
2017-06-01T21:57:26.944Z,3.78
2017-06-01T21:59:55.808Z,3.30
2017-06-01T22:02:24.712Z,3.52
2017-06-01T22:04:53.555Z,3.46
2017-06-01T22:07:22.432Z,3.88
2017-06-01T22:09:51.318Z,3.72
2017-06-01T22:12:20.309Z,3.02
2017-06-01T22:14:49.161Z,3.34
2017-06-01T22:17:18.040Z,3.72
2017-06-01T22:19:46.937Z,4.04
2017-06-01T22:22:15.789Z,3.64
2017-06-01T22:24:44.653Z,3.10
2017-06-01T22:27:15.225Z,3.28
2017-06-01T22:29:44.086Z,3.60
2017-06-01T22:32:14.186Z,3.60
2017-06-01T22:34:43.107Z,3.28
2017-06-01T22:37:11.966Z,3.14
2017-06-01T22:39:40.800Z,3.46
2017-06-01T22:42:09.680Z,3.60
2017-06-01T22:44:38.532Z,3.26
2017-06-01T22:47:07.436Z,3.52
2017-06-01T22:49:36.292Z,3.62
2017-06-01T22:52:05.165Z,4.06
2017-06-01T22:54:37.639Z,3.12
2017-06-01T22:57:06.509Z,4.16
2017-06-01T22:59:35.398Z,3.50
2017-06-01T23:02:03.505Z,3.40
2017-06-01T23:04:32.362Z,3.62
2017-06-01T23:07:01.245Z,4.22
2017-06-01T23:09:30.113Z,3.52
2017-06-01T23:11:58.964Z,3.90
2017-06-01T23:14:28.000Z,3.44
2017-06-01T23:17:07.718Z,3.40
2017-06-01T23:19:36.645Z,3.70
2017-06-01T23:22:05.492Z,3.70
2017-06-01T23:24:34.352Z,3.60
2017-06-01T23:27:03.232Z,3.50
2017-06-01T23:29:32.093Z,3.48
2017-06-01T23:32:00.940Z,3.64
2017-06-01T23:34:29.847Z,3.62
2017-06-01T23:36:58.705Z,3.76
2017-06-01T23:39:27.570Z,3.90
2017-06-01T23:41:57.361Z,3.62
2017-06-01T23:44:26.212Z,3.50
2017-06-01T23:46:55.077Z,3.62
2017-06-01T23:49:23.955Z,4.38
2017-06-01T23:51:52.042Z,4.02
2017-06-01T23:54:21.750Z,4.26
2017-06-01T23:56:49.844Z,4.58
2017-06-01T23:59:18.706Z,3.90
